This is the latest recevied weather packets stored in our database for station/object GW1596. If no packets are shown the sender has not sent any weather packets the latest 10 day(s).
| Time | Temp. | Humidity | Pressure | Rain* | Wind** | Luminosity | Snow |
|---|---|---|---|---|---|---|---|
| 1777848143 | 16.11° C | 32% | 1017.6 hPa | 0 mm | - | - | - |
| 1777836981 | 16.67° C | 31% | 1019.3 hPa | 0 mm | - | - | - |
| 1777836643 | 16.11° C | 29% | 1019.3 hPa | 0 mm | - | - | - |
| 1777832334 | 14.44° C | 36% | 1020.3 hPa | 0 mm | - | - | - |
| 1777830500 | 13.33° C | 34% | 1020.6 hPa | 0 mm | - | - | - |
| 1777824410 | 12.78° C | 35% | 1022 hPa | 0 mm | - | - | - |
| 1777823677 | 12.22° C | 39% | 1022.3 hPa | 0 mm | - | - | - |
| 1777821138 | 11.11° C | 42% | 1022.3 hPa | 0 mm | - | - | - |
| 1777820790 | 11.11° C | 44% | 1022.3 hPa | 0 mm | - | - | - |
| 1777820078 | 11.11° C | 47% | 1022.3 hPa | 0 mm | - | - | - |
| 1777818641 | 11.11° C | 49% | 1022.6 hPa | 0 mm | - | - | - |
| 1777816828 | 8.89° C | 61% | 1022.6 hPa | 0 mm | - | - | - |
| 1777808179 | -0.56° C | 99% | 1022 hPa | 0 mm | - | - | - |
| 1777807091 | -1.11° C | 99% | 1022 hPa | 0 mm | - | - | - |
| 1777804936 | -1.11° C | 99% | 1021.6 hPa | 0 mm | - | - | - |
| 1777802774 | -1.11° C | 98% | 1021.3 hPa | 0 mm | - | - | - |
| 1777798814 | -1.11° C | 98% | 1020.9 hPa | 0 mm | - | - | - |
| 1777797760 | -0.56° C | 98% | 1020.9 hPa | 0 mm | - | - | - |
| 1777797038 | -0.56° C | 98% | 1020.9 hPa | 0 mm | - | - | - |
| 1777796691 | -0.56° C | 98% | 1020.9 hPa | 0 mm | - | - | - |
| 1777791983 | 0° C | 98% | 1020.3 hPa | 0 mm | - | - | - |
| 1777789092 | -1.11° C | 97% | 1020.6 hPa | 0 mm | - | - | - |
| 1777786957 | -0.56° C | 97% | 1020.6 hPa | 0 mm | - | - | - |
| 1777786583 | -0.56° C | 97% | 1020.6 hPa | 0 mm | - | - | - |
| 1777786251 | 0° C | 97% | 1020.6 hPa | 0 mm | - | - | - |
* Rain since midnight (hover to see other rain measurements)
** Current wind speed in m/s (hover to see current wind gust speed)